createdAt,value
2022-08-19T00:00:10.762Z,7.70
2022-08-19T00:02:38.830Z,9.23
2022-08-19T00:05:20.386Z,9.40
2022-08-19T00:07:49.943Z,9.60
2022-08-19T00:10:19.016Z,10.97
2022-08-19T00:12:47.246Z,10.82
2022-08-19T00:15:19.323Z,10.80
2022-08-19T00:17:50.397Z,11.13
2022-08-19T00:20:22.237Z,10.70
2022-08-19T00:22:50.501Z,9.85
2022-08-19T00:25:18.522Z,9.90
2022-08-19T00:28:00.519Z,8.35
2022-08-19T00:30:31.599Z,8.75
2022-08-19T00:33:00.102Z,8.60
2022-08-19T00:35:28.646Z,8.07
2022-08-19T00:37:57.536Z,8.02
2022-08-19T00:40:26.635Z,8.33
2022-08-19T00:42:55.197Z,7.50
2022-08-19T00:45:25.644Z,6.85
2022-08-19T00:47:53.742Z,8.40
2022-08-19T00:50:22.848Z,8.55
2022-08-19T00:52:52.676Z,8.38
2022-08-19T00:55:25.398Z,8.68
2022-08-19T00:58:12.483Z,8.30
2022-08-19T01:00:40.424Z,7.73
2022-08-19T01:03:11.217Z,8.35
2022-08-19T01:05:41.278Z,8.25
2022-08-19T01:08:09.655Z,6.95
2022-08-19T01:11:04.167Z,7.30
2022-08-19T01:13:49.235Z,7.33
2022-08-19T01:16:20.905Z,7.00
2022-08-19T01:18:49.428Z,7.07
2022-08-19T01:21:22.901Z,7.32
2022-08-19T01:23:52.104Z,7.00
2022-08-19T01:26:22.928Z,6.43
2022-08-19T01:28:59.639Z,6.97
2022-08-19T01:31:33.610Z,6.73
2022-08-19T01:34:02.963Z,6.70
2022-08-19T01:36:38.578Z,6.32
2022-08-19T01:39:11.558Z,5.85
2022-08-19T01:41:39.767Z,6.28
2022-08-19T01:44:18.483Z,5.93
2022-08-19T01:46:49.664Z,5.28
2022-08-19T01:49:19.785Z,5.40
2022-08-19T01:51:48.562Z,5.23
2022-08-19T01:54:23.458Z,5.13
2022-08-19T01:57:02.778Z,4.63
2022-08-19T01:59:32.928Z,5.45
2022-08-19T02:02:01.136Z,4.30
2022-08-19T02:04:28.982Z,4.60
2022-08-19T02:06:56.983Z,4.00
2022-08-19T02:09:24.807Z,5.23
2022-08-19T02:11:52.848Z,4.70
2022-08-19T02:14:20.962Z,5.05
2022-08-19T02:16:49.278Z,4.95
2022-08-19T02:19:17.139Z,4.90
2022-08-19T02:21:45.952Z,5.38
2022-08-19T02:24:13.865Z,5.13
2022-08-19T02:26:41.910Z,5.27
2022-08-19T02:29:11.808Z,5.10
2022-08-19T02:31:39.978Z,5.60
2022-08-19T02:34:07.933Z,5.55
2022-08-19T02:36:36.030Z,5.43
2022-08-19T02:39:11.030Z,5.95
2022-08-19T02:41:39.167Z,6.15
2022-08-19T02:44:29.391Z,5.50
2022-08-19T02:46:57.187Z,5.70
2022-08-19T02:49:24.987Z,5.20
2022-08-19T02:51:53.218Z,5.70
2022-08-19T02:54:21.227Z,5.70
2022-08-19T02:56:49.213Z,5.30
2022-08-19T02:59:17.086Z,5.32
2022-08-19T03:01:45.281Z,5.53
2022-08-19T03:04:15.188Z,5.50
2022-08-19T03:06:46.642Z,6.00
2022-08-19T03:09:16.015Z,5.95
2022-08-19T03:11:43.911Z,5.55
2022-08-19T03:14:12.434Z,5.90
2022-08-19T03:16:53.668Z,5.82
2022-08-19T03:19:25.044Z,5.90
2022-08-19T03:21:53.399Z,5.55
2022-08-19T03:24:21.622Z,5.50
2022-08-19T03:26:53.407Z,6.15
2022-08-19T03:29:30.305Z,5.78
2022-08-19T03:32:04.808Z,5.75
2022-08-19T03:34:35.518Z,5.78
2022-08-19T03:37:08.168Z,5.45
2022-08-19T03:39:38.816Z,5.80
2022-08-19T03:42:31.723Z,5.67
2022-08-19T03:44:55.275Z,5.85
2022-08-19T03:47:23.139Z,4.65
2022-08-19T03:49:51.472Z,4.90
2022-08-19T03:52:19.381Z,5.00
2022-08-19T03:54:47.458Z,4.45
2022-08-19T03:57:15.345Z,4.30
2022-08-19T03:59:43.698Z,4.67
2022-08-19T04:02:13.694Z,4.90
2022-08-19T04:04:44.633Z,4.95
2022-08-19T04:07:17.474Z,4.45
2022-08-19T04:09:46.036Z,5.00
2022-08-19T04:12:14.084Z,4.63
2022-08-19T04:14:42.726Z,4.77
2022-08-19T04:17:10.662Z,5.13
2022-08-19T04:19:39.814Z,4.78
2022-08-19T04:22:08.437Z,4.40
2022-08-19T04:24:37.352Z,4.75
2022-08-19T04:27:07.367Z,5.22
2022-08-19T04:29:35.578Z,4.80
2022-08-19T04:32:08.428Z,4.97
2022-08-19T04:35:02.297Z,5.55
2022-08-19T04:37:34.996Z,5.38
2022-08-19T04:40:25.607Z,5.00
2022-08-19T04:42:54.877Z,5.28
2022-08-19T04:45:23.381Z,5.03
2022-08-19T04:47:58.197Z,4.85
2022-08-19T04:50:31.275Z,4.83
2022-08-19T04:52:59.263Z,4.82
2022-08-19T04:55:27.283Z,4.63
2022-08-19T04:57:56.061Z,5.05
2022-08-19T05:00:24.289Z,4.70
2022-08-19T05:02:52.421Z,4.88
2022-08-19T05:05:21.327Z,5.07
2022-08-19T05:07:49.322Z,5.43
2022-08-19T05:10:17.316Z,4.72
2022-08-19T05:12:45.423Z,5.10
2022-08-19T05:15:13.483Z,5.30
2022-08-19T05:18:01.841Z,5.28
2022-08-19T05:20:48.026Z,4.82
2022-08-19T05:23:20.443Z,4.50
2022-08-19T05:25:48.690Z,6.40
2022-08-19T05:28:16.787Z,6.30
2022-08-19T05:30:47.584Z,6.07
2022-08-19T05:33:16.114Z,5.32
2022-08-19T05:35:45.348Z,5.82
2022-08-19T05:38:14.284Z,5.82
2022-08-19T05:40:42.751Z,4.80
2022-08-19T05:43:10.795Z,4.70
2022-08-19T05:45:43.517Z,4.97
2022-08-19T05:48:13.283Z,4.68
2022-08-19T05:50:43.136Z,5.15
2022-08-19T05:53:11.337Z,4.68
2022-08-19T05:55:40.147Z,5.47
2022-08-19T05:58:11.242Z,4.88
2022-08-19T06:00:39.639Z,5.22
2022-08-19T06:03:11.399Z,5.05
2022-08-19T06:05:44.730Z,4.80
2022-08-19T06:08:21.171Z,5.53
2022-08-19T06:11:34.104Z,4.37
2022-08-19T06:14:05.289Z,5.20
2022-08-19T06:16:36.467Z,5.70
2022-08-19T06:19:08.459Z,5.70
2022-08-19T06:21:38.971Z,5.38
2022-08-19T06:24:09.039Z,5.95
2022-08-19T06:26:39.444Z,6.03
2022-08-19T06:29:09.375Z,5.47
2022-08-19T06:31:38.180Z,5.93
2022-08-19T06:34:07.462Z,5.45
2022-08-19T06:36:38.968Z,5.45
2022-08-19T06:39:11.201Z,5.50
2022-08-19T06:41:47.618Z,5.60
2022-08-19T06:44:24.998Z,5.17
2022-08-19T06:46:55.171Z,5.15
2022-08-19T06:49:24.807Z,5.75
2022-08-19T06:51:52.808Z,5.28
2022-08-19T06:54:21.362Z,5.10
2022-08-19T06:56:49.573Z,5.57
2022-08-19T06:59:20.655Z,5.63
2022-08-19T07:01:52.247Z,6.83
2022-08-19T07:04:22.696Z,5.55
2022-08-19T07:06:58.335Z,5.95
2022-08-19T07:09:27.704Z,5.80
2022-08-19T07:11:59.233Z,5.10
2022-08-19T07:14:29.350Z,5.78
2022-08-19T07:16:58.564Z,6.13
2022-08-19T07:19:28.808Z,6.33
2022-08-19T07:21:57.588Z,6.50
2022-08-19T07:24:26.692Z,5.80
2022-08-19T07:27:04.115Z,5.78
2022-08-19T07:29:39.230Z,6.70
2022-08-19T07:32:07.707Z,6.10
2022-08-19T07:34:41.578Z,6.47
2022-08-19T07:37:11.358Z,6.63
2022-08-19T07:39:40.774Z,5.97
2022-08-19T07:42:13.469Z,6.60
2022-08-19T07:44:49.872Z,5.80
2022-08-19T07:47:47.967Z,6.35
2022-08-19T07:50:12.730Z,6.55
2022-08-19T07:52:41.836Z,5.97
2022-08-19T07:55:41.999Z,6.78
2022-08-19T07:57:59.923Z,6.25
2022-08-19T08:04:33.910Z,6.47
2022-08-19T08:07:20.711Z,6.27
2022-08-19T08:09:49.638Z,6.83
2022-08-19T08:12:35.097Z,6.93
2022-08-19T08:15:12.440Z,6.32
2022-08-19T08:17:49.530Z,7.10
2022-08-19T08:20:19.632Z,6.65
2022-08-19T08:23:07.420Z,7.20
2022-08-19T08:25:38.104Z,6.53
2022-08-19T08:28:06.748Z,6.95
2022-08-19T08:30:37.336Z,5.93
2022-08-19T08:33:05.643Z,6.78
2022-08-19T08:35:34.827Z,6.43
2022-08-19T08:38:06.000Z,7.27
2022-08-19T08:40:43.696Z,6.25
2022-08-19T08:43:36.382Z,6.40
2022-08-19T08:46:43.242Z,6.43
2022-08-19T08:49:21.934Z,5.88
2022-08-19T08:52:00.081Z,7.10
2022-08-19T08:54:36.423Z,6.40
2022-08-19T08:57:10.961Z,6.53
2022-08-19T08:59:43.476Z,6.50
2022-08-19T09:02:11.631Z,6.32
2022-08-19T09:04:40.338Z,7.47
2022-08-19T09:07:38.022Z,6.97
2022-08-19T09:10:29.717Z,6.43
2022-08-19T09:13:16.351Z,6.50
2022-08-19T09:16:06.278Z,6.85
2022-08-19T09:18:55.979Z,6.80
2022-08-19T09:21:30.342Z,6.88
2022-08-19T09:24:06.008Z,7.27
2022-08-19T09:26:47.318Z,6.90
2022-08-19T09:29:22.812Z,6.90
2022-08-19T09:31:51.457Z,6.75
2022-08-19T09:34:22.156Z,7.00
2022-08-19T09:36:55.967Z,7.05
2022-08-19T09:39:24.201Z,6.80
2022-08-19T09:41:52.013Z,6.80
2022-08-19T09:44:21.990Z,6.50
2022-08-19T09:46:50.244Z,6.75
2022-08-19T09:49:20.133Z,6.35
2022-08-19T09:51:52.634Z,6.75
2022-08-19T09:54:23.661Z,6.70
2022-08-19T09:56:54.606Z,6.23
2022-08-19T09:59:22.791Z,6.57
2022-08-19T10:01:51.028Z,6.88
2022-08-19T10:04:20.581Z,6.40
2022-08-19T10:06:53.951Z,7.20
2022-08-19T10:09:33.583Z,6.83
2022-08-19T10:12:04.435Z,7.20
2022-08-19T10:14:35.067Z,7.28
2022-08-19T10:17:04.577Z,7.50
2022-08-19T10:19:55.086Z,6.78
2022-08-19T10:22:25.459Z,7.00
2022-08-19T10:24:54.795Z,6.57
2022-08-19T10:27:23.328Z,6.07
2022-08-19T10:29:51.532Z,6.60
2022-08-19T10:32:19.631Z,6.60
2022-08-19T10:35:09.681Z,6.72
2022-08-19T10:37:52.658Z,6.80
2022-08-19T10:40:28.053Z,6.17
2022-08-19T10:42:57.190Z,6.30
2022-08-19T10:45:28.128Z,6.68
2022-08-19T10:47:57.046Z,6.20
2022-08-19T10:50:43.292Z,6.28
2022-08-19T10:53:11.578Z,5.70
2022-08-19T10:55:58.157Z,6.70
2022-08-19T10:58:27.737Z,6.18
2022-08-19T11:01:00.347Z,5.90
2022-08-19T11:03:32.121Z,6.03
2022-08-19T11:06:08.040Z,6.30
2022-08-19T11:08:39.107Z,5.85
2022-08-19T11:11:09.154Z,6.20
2022-08-19T11:13:40.052Z,6.25
2022-08-19T11:16:17.864Z,5.60
2022-08-19T11:18:51.969Z,6.23
2022-08-19T11:21:26.845Z,6.13
2022-08-19T11:23:59.257Z,6.53
2022-08-19T11:26:28.432Z,6.45
2022-08-19T11:28:57.016Z,6.60
2022-08-19T11:31:32.246Z,5.63
2022-08-19T11:34:03.004Z,5.72
2022-08-19T11:36:32.992Z,6.63
2022-08-19T11:39:01.247Z,5.88
2022-08-19T11:41:29.692Z,6.63
2022-08-19T11:43:58.214Z,5.87
2022-08-19T11:46:28.864Z,5.28
2022-08-19T11:49:02.393Z,5.78
2022-08-19T11:51:32.961Z,5.28
2022-08-19T11:54:02.808Z,6.00
2022-08-19T11:56:30.857Z,5.23
2022-08-19T11:58:59.198Z,6.25
2022-08-19T12:01:28.259Z,6.10
2022-08-19T12:03:57.852Z,5.75
2022-08-19T12:06:30.017Z,5.93
2022-08-19T12:09:03.965Z,5.70
2022-08-19T12:11:34.650Z,5.35
2022-08-19T12:14:03.398Z,5.72
2022-08-19T12:16:34.549Z,5.28
2022-08-19T12:19:06.922Z,5.55
2022-08-19T12:21:37.202Z,5.53
2022-08-19T12:24:06.749Z,5.50
2022-08-19T12:26:36.001Z,5.45
2022-08-19T12:29:23.930Z,5.70
2022-08-19T12:31:53.273Z,5.20
2022-08-19T12:34:22.474Z,5.80
2022-08-19T12:36:50.738Z,5.55
2022-08-19T12:39:19.012Z,5.75
2022-08-19T12:41:54.327Z,5.57
2022-08-19T12:44:29.573Z,5.75
2022-08-19T12:47:01.010Z,5.47
2022-08-19T12:49:52.189Z,5.53
2022-08-19T12:52:28.533Z,5.35
2022-08-19T12:54:58.540Z,5.50
2022-08-19T12:57:32.866Z,5.68
2022-08-19T13:00:13.782Z,5.03
2022-08-19T13:02:47.968Z,5.22
2022-08-19T13:05:21.177Z,5.38
2022-08-19T13:07:49.962Z,6.03
2022-08-19T13:10:20.954Z,5.40
2022-08-19T13:12:53.092Z,4.93
2022-08-19T13:15:24.262Z,5.78
2022-08-19T13:17:55.137Z,5.78
2022-08-19T13:20:24.313Z,5.47
2022-08-19T13:22:52.840Z,4.72
2022-08-19T13:25:21.386Z,5.43
2022-08-19T13:27:52.110Z,5.63
2022-08-19T13:30:40.464Z,5.53
2022-08-19T13:33:17.692Z,5.28
2022-08-19T13:35:58.357Z,5.47
2022-08-19T13:38:26.805Z,6.00
2022-08-19T13:40:56.986Z,5.55
2022-08-19T13:43:28.099Z,6.10
2022-08-19T13:45:58.870Z,6.00
2022-08-19T13:48:30.242Z,5.95
2022-08-19T13:50:58.628Z,6.23
2022-08-19T13:53:26.708Z,6.28
2022-08-19T13:55:55.445Z,6.72
2022-08-19T13:58:24.075Z,6.70
2022-08-19T14:00:52.605Z,6.20
2022-08-19T14:03:20.497Z,6.17
2022-08-19T14:05:48.495Z,6.32
2022-08-19T14:08:16.583Z,5.82
2022-08-19T14:10:48.560Z,6.10
2022-08-19T14:13:19.772Z,5.30
2022-08-19T14:15:48.970Z,5.70
2022-08-19T14:18:20.717Z,6.00
2022-08-19T14:20:48.820Z,6.15
2022-08-19T14:23:16.868Z,5.63
2022-08-19T14:25:45.701Z,5.45
2022-08-19T14:28:13.640Z,5.47
2022-08-19T14:30:41.746Z,5.50
2022-08-19T14:33:09.792Z,5.97
2022-08-19T14:35:38.364Z,5.90
2022-08-19T14:38:08.627Z,6.18
2022-08-19T14:40:36.685Z,6.13
2022-08-19T14:43:05.833Z,5.90
2022-08-19T14:45:37.212Z,5.57
2022-08-19T14:48:19.137Z,5.57
2022-08-19T14:50:47.896Z,5.68
2022-08-19T14:53:18.270Z,5.95
2022-08-19T14:55:48.178Z,5.57
2022-08-19T14:58:28.888Z,5.30
2022-08-19T15:01:00.746Z,5.57
2022-08-19T15:03:29.926Z,5.80
2022-08-19T15:05:59.038Z,6.03
2022-08-19T15:08:28.100Z,6.13
2022-08-19T15:10:56.703Z,6.47
2022-08-19T15:13:25.943Z,6.47
2022-08-19T15:15:54.024Z,6.68
2022-08-19T15:18:22.991Z,6.10
2022-08-19T15:20:52.168Z,6.10
2022-08-19T15:23:22.525Z,5.18
2022-08-19T15:25:54.804Z,5.45
2022-08-19T15:28:24.427Z,5.40
2022-08-19T15:30:53.323Z,5.78
2022-08-19T15:33:21.806Z,5.43
2022-08-19T15:35:51.950Z,5.10
2022-08-19T15:38:22.803Z,5.80
2022-08-19T15:40:51.515Z,5.97
2022-08-19T15:43:22.612Z,5.32
2022-08-19T15:45:50.619Z,5.47
2022-08-19T15:48:18.650Z,4.83
2022-08-19T15:50:46.782Z,5.72
2022-08-19T15:53:14.713Z,6.05
2022-08-19T15:55:46.366Z,5.97
2022-08-19T15:58:34.384Z,5.85
2022-08-19T16:01:24.233Z,7.97
2022-08-19T16:04:14.831Z,6.45
2022-08-19T16:06:49.924Z,6.05
2022-08-19T16:09:23.653Z,5.90
2022-08-19T16:12:04.250Z,6.97
2022-08-19T16:14:35.803Z,5.97
2022-08-19T16:17:04.967Z,6.03
2022-08-19T16:19:33.820Z,5.65
2022-08-19T16:22:01.833Z,7.70
2022-08-19T16:24:30.284Z,7.07
2022-08-19T16:26:58.428Z,6.70
2022-08-19T16:29:33.343Z,5.87
2022-08-19T16:32:13.227Z,6.57
2022-08-19T16:34:42.684Z,6.60
2022-08-19T16:37:11.469Z,6.25
2022-08-19T16:39:40.069Z,4.80
2022-08-19T16:42:09.131Z,5.68
2022-08-19T16:44:42.863Z,5.63
2022-08-19T16:47:11.320Z,5.90
2022-08-19T16:49:53.100Z,5.82
2022-08-19T16:52:27.679Z,5.03
2022-08-19T16:54:55.817Z,6.00
2022-08-19T16:57:24.417Z,5.83
2022-08-19T16:59:52.870Z,6.43
2022-08-19T17:02:25.579Z,6.07
2022-08-19T17:04:59.459Z,6.35
2022-08-19T17:07:33.632Z,7.03
2022-08-19T17:10:03.638Z,6.85
2022-08-19T17:12:32.512Z,5.87
2022-08-19T17:15:05.197Z,5.60
2022-08-19T17:17:33.103Z,6.32
2022-08-19T17:20:03.246Z,6.35
2022-08-19T17:22:31.617Z,5.93
2022-08-19T17:24:59.542Z,6.30
2022-08-19T17:27:32.535Z,6.00
2022-08-19T17:30:03.098Z,6.22
2022-08-19T17:32:35.966Z,6.72
2022-08-19T17:35:05.161Z,7.50
2022-08-19T17:37:33.224Z,7.85
2022-08-19T17:40:03.370Z,7.77
2022-08-19T17:42:32.626Z,8.43
2022-08-19T17:45:05.931Z,8.82
2022-08-19T17:47:37.150Z,11.00
2022-08-19T17:50:10.274Z,10.35
2022-08-19T17:52:38.561Z,10.05
2022-08-19T17:55:07.888Z,8.90
2022-08-19T17:57:35.851Z,9.50
2022-08-19T18:00:04.856Z,9.15
2022-08-19T18:02:45.303Z,8.57
2022-08-19T18:05:14.339Z,9.77
2022-08-19T18:07:44.621Z,10.10
2022-08-19T18:10:13.130Z,10.40
2022-08-19T18:12:41.068Z,9.53
2022-08-19T18:15:10.164Z,7.65
2022-08-19T18:17:38.489Z,8.23
2022-08-19T18:20:12.158Z,7.88
2022-08-19T18:22:43.953Z,7.07
2022-08-19T18:25:23.018Z,7.00
2022-08-19T18:27:56.630Z,6.57
2022-08-19T18:30:26.675Z,6.30
2022-08-19T18:32:55.260Z,5.60
2022-08-19T18:35:30.215Z,5.60
2022-08-19T18:38:02.148Z,5.63
2022-08-19T18:40:48.938Z,5.83
2022-08-19T18:43:34.905Z,5.50
2022-08-19T18:46:21.327Z,5.85
2022-08-19T18:49:06.900Z,6.00
2022-08-19T18:51:35.196Z,6.18
2022-08-19T18:54:03.839Z,6.00
2022-08-19T18:56:32.638Z,6.23
2022-08-19T18:59:01.476Z,5.70
2022-08-19T19:01:37.069Z,5.70
2022-08-19T19:04:12.453Z,5.30
2022-08-19T19:06:43.015Z,5.93
2022-08-19T19:09:14.701Z,5.38
2022-08-19T19:11:46.492Z,5.07
2022-08-19T19:14:32.733Z,5.30
2022-08-19T19:17:11.549Z,5.45
2022-08-19T19:19:43.158Z,5.40
2022-08-19T19:22:15.361Z,6.10
2022-08-19T19:24:46.349Z,5.35
2022-08-19T19:27:16.590Z,5.00
2022-08-19T19:29:51.097Z,5.30
2022-08-19T19:32:25.305Z,5.03
2022-08-19T19:34:53.481Z,4.68
2022-08-19T19:37:22.804Z,4.32
2022-08-19T19:39:50.810Z,3.80
2022-08-19T19:42:21.594Z,4.43
2022-08-19T19:44:51.761Z,4.47
2022-08-19T19:47:21.911Z,4.53
2022-08-19T19:50:13.367Z,4.50
2022-08-19T19:52:41.802Z,4.13
2022-08-19T19:55:10.328Z,3.80
2022-08-19T19:57:39.607Z,3.83
2022-08-19T20:00:09.357Z,3.42
2022-08-19T20:02:37.301Z,3.42
2022-08-19T20:05:05.883Z,3.33
2022-08-19T20:07:52.404Z,3.60
2022-08-19T20:10:20.464Z,3.55
2022-08-19T20:12:48.443Z,3.70
2022-08-19T20:15:16.504Z,3.30
2022-08-19T20:17:44.565Z,3.30
2022-08-19T20:20:15.226Z,3.33
2022-08-19T20:22:47.773Z,3.40
2022-08-19T20:25:17.742Z,3.58
2022-08-19T20:27:50.932Z,3.90
2022-08-19T20:30:21.475Z,3.30
2022-08-19T20:32:51.529Z,3.30
2022-08-19T20:35:21.981Z,3.67
2022-08-19T20:37:53.846Z,3.53
2022-08-19T20:40:26.094Z,3.10
2022-08-19T20:42:54.648Z,3.25
2022-08-19T20:45:33.578Z,2.95
2022-08-19T20:48:03.804Z,2.90
2022-08-19T20:50:33.883Z,3.00
2022-08-19T20:53:03.011Z,3.10
2022-08-19T20:55:31.060Z,3.25
2022-08-19T20:57:59.581Z,3.03
2022-08-19T21:00:29.590Z,3.50
2022-08-19T21:02:57.914Z,3.17
2022-08-19T21:05:30.247Z,3.38
2022-08-19T21:07:59.188Z,3.88
2022-08-19T21:10:28.350Z,3.45
2022-08-19T21:12:56.822Z,5.75
2022-08-19T21:15:25.136Z,13.90
2022-08-19T21:17:53.077Z,9.67
2022-08-19T21:20:21.028Z,4.47
2022-08-19T21:22:51.884Z,3.63
2022-08-19T21:25:19.783Z,3.92
2022-08-19T21:27:47.659Z,3.22
2022-08-19T21:30:15.887Z,3.77
2022-08-19T21:32:43.953Z,3.17
2022-08-19T21:35:13.019Z,3.40
2022-08-19T21:37:41.013Z,3.40
2022-08-19T21:40:09.763Z,3.50
2022-08-19T21:42:40.076Z,3.38
2022-08-19T21:45:09.006Z,3.57
2022-08-19T21:47:37.053Z,3.83
2022-08-19T21:50:06.427Z,4.20
2022-08-19T21:52:35.086Z,4.28
2022-08-19T21:55:03.200Z,3.53
2022-08-19T21:57:31.215Z,3.07
2022-08-19T21:59:59.233Z,3.20
2022-08-19T22:02:28.491Z,3.15
2022-08-19T22:04:56.534Z,3.15
2022-08-19T22:07:25.327Z,3.10
2022-08-19T22:09:53.196Z,3.22
2022-08-19T22:12:25.565Z,3.23
2022-08-19T22:14:54.885Z,3.50
2022-08-19T22:17:23.304Z,3.40
2022-08-19T22:19:52.832Z,3.30
2022-08-19T22:22:24.468Z,3.22
2022-08-19T22:24:53.738Z,3.00
2022-08-19T22:27:21.993Z,3.20
2022-08-19T22:29:52.545Z,3.50
2022-08-19T22:32:27.015Z,3.00
2022-08-19T22:35:00.257Z,3.08
2022-08-19T22:37:32.505Z,3.28
2022-08-19T22:40:05.718Z,2.97
2022-08-19T22:42:34.162Z,3.00
2022-08-19T22:45:01.958Z,3.30
2022-08-19T22:47:32.248Z,3.00
2022-08-19T22:50:02.738Z,3.35
2022-08-19T22:52:32.403Z,3.15
2022-08-19T22:55:02.716Z,3.47
2022-08-19T22:57:30.721Z,3.10
2022-08-19T23:00:01.242Z,3.00
2022-08-19T23:02:33.946Z,3.08
2022-08-19T23:05:03.982Z,3.00
2022-08-19T23:07:32.152Z,3.28
2022-08-19T23:10:00.160Z,2.95
2022-08-19T23:12:35.023Z,2.80
2022-08-19T23:15:09.528Z,2.90
2022-08-19T23:17:41.037Z,2.93
2022-08-19T23:20:14.732Z,2.90
2022-08-19T23:22:44.931Z,2.90
2022-08-19T23:25:19.879Z,2.97
2022-08-19T23:28:06.172Z,3.00
2022-08-19T23:30:37.968Z,2.35
2022-08-19T23:33:16.369Z,3.07
2022-08-19T23:35:44.845Z,2.60
2022-08-19T23:38:12.728Z,3.10
2022-08-19T23:40:41.272Z,2.80
2022-08-19T23:43:09.872Z,2.60
2022-08-19T23:45:39.867Z,2.88
2022-08-19T23:48:10.612Z,2.73
2022-08-19T23:50:42.951Z,2.90
2022-08-19T23:53:13.254Z,2.63
2022-08-19T23:55:45.362Z,2.92
2022-08-19T23:58:15.267Z,2.70
